createdAt,value
2019-02-27T00:01:31.883Z,9.47
2019-02-27T00:03:59.825Z,10.40
2019-02-27T00:06:28.425Z,11.80
2019-02-27T00:08:57.886Z,12.03
2019-02-27T00:11:24.981Z,12.87
2019-02-27T00:13:52.439Z,12.13
2019-02-27T00:16:19.864Z,11.93
2019-02-27T00:18:47.258Z,12.73
2019-02-27T00:21:14.678Z,12.37
2019-02-27T00:23:42.079Z,12.30
2019-02-27T00:26:09.616Z,12.37
2019-02-27T00:28:37.102Z,11.53
2019-02-27T00:31:04.594Z,10.53
2019-02-27T00:33:31.991Z,11.80
2019-02-27T00:35:59.414Z,12.50
2019-02-27T00:38:26.812Z,11.07
2019-02-27T00:40:54.278Z,11.97
2019-02-27T00:43:21.715Z,11.07
2019-02-27T00:45:49.187Z,11.80
2019-02-27T00:48:16.611Z,12.00
2019-02-27T00:50:44.006Z,12.27
2019-02-27T00:53:11.433Z,12.33
2019-02-27T00:55:39.526Z,15.80
2019-02-27T00:58:06.992Z,10.53
2019-02-27T01:00:38.997Z,10.50
2019-02-27T01:03:03.478Z,12.00
2019-02-27T01:05:30.939Z,10.37
2019-02-27T01:07:58.369Z,11.67
2019-02-27T01:10:25.758Z,11.63
2019-02-27T01:12:53.255Z,10.10
2019-02-27T01:15:22.283Z,9.53
2019-02-27T01:17:49.802Z,12.10
2019-02-27T01:20:17.333Z,11.33
2019-02-27T01:22:44.829Z,9.70
2019-02-27T01:25:12.442Z,11.47
2019-02-27T01:27:39.938Z,12.10
2019-02-27T01:30:08.894Z,12.97
2019-02-27T01:32:36.327Z,12.03
2019-02-27T01:35:05.162Z,11.95
2019-02-27T01:37:32.578Z,11.47
2019-02-27T01:39:59.981Z,12.30
2019-02-27T01:42:32.041Z,12.60
2019-02-27T01:44:56.453Z,11.40
2019-02-27T01:47:23.874Z,10.73
2019-02-27T01:49:51.283Z,13.13
2019-02-27T01:52:18.699Z,11.60
2019-02-27T01:54:48.992Z,11.27
2019-02-27T01:57:15.199Z,11.50
2019-02-27T01:59:42.611Z,11.87
2019-02-27T02:02:10.041Z,10.00
2019-02-27T02:04:37.499Z,9.73
2019-02-27T02:07:06.607Z,10.60
2019-02-27T02:09:34.828Z,9.70
2019-02-27T02:12:07.833Z,9.50
2019-02-27T02:14:43.274Z,9.80
2019-02-27T02:17:14.923Z,8.57
2019-02-27T02:19:48.777Z,9.60
2019-02-27T02:22:20.479Z,9.63
2019-02-27T02:24:51.868Z,8.63
2019-02-27T02:27:20.122Z,9.63
2019-02-27T02:29:52.934Z,8.80
2019-02-27T02:32:22.421Z,9.63
2019-02-27T02:35:08.057Z,8.97
2019-02-27T02:37:48.984Z,9.10
2019-02-27T02:40:17.924Z,9.70
2019-02-27T02:42:46.923Z,10.60
2019-02-27T02:45:24.879Z,10.40
2019-02-27T02:47:59.880Z,10.37
2019-02-27T02:50:28.807Z,9.60
2019-02-27T02:53:00.475Z,11.53
2019-02-27T02:55:32.133Z,10.47
2019-02-27T02:58:11.329Z,10.93
2019-02-27T03:00:39.880Z,11.00
2019-02-27T03:03:11.757Z,10.70
2019-02-27T03:05:43.646Z,10.73
2019-02-27T03:08:12.682Z,9.93
2019-02-27T03:10:42.795Z,11.07
2019-02-27T03:13:12.243Z,9.70
2019-02-27T03:15:43.940Z,10.00
2019-02-27T03:18:12.913Z,10.57
2019-02-27T03:20:44.721Z,10.17
2019-02-27T03:23:22.870Z,9.80
2019-02-27T03:25:51.904Z,10.33
2019-02-27T03:28:27.157Z,11.83
2019-02-27T03:30:58.756Z,9.33
2019-02-27T03:33:33.604Z,10.10
2019-02-27T03:36:11.730Z,10.07
2019-02-27T03:38:49.611Z,9.50
2019-02-27T03:41:22.846Z,9.13
2019-02-27T03:43:57.844Z,9.73
2019-02-27T03:46:40.830Z,11.50
2019-02-27T03:49:21.537Z,11.00
2019-02-27T03:52:08.607Z,9.43
2019-02-27T03:54:57.019Z,9.57
2019-02-27T03:57:32.861Z,10.87
2019-02-27T04:00:07.681Z,9.63
2019-02-27T04:02:42.060Z,10.23
2019-02-27T04:05:10.458Z,11.23
2019-02-27T04:07:51.603Z,11.00
2019-02-27T04:10:19.027Z,10.27
2019-02-27T04:12:51.406Z,11.00
2019-02-27T04:15:18.085Z,10.13
2019-02-27T04:17:44.113Z,10.13
2019-02-27T04:20:14.611Z,9.90
2019-02-27T04:22:40.614Z,10.97
2019-02-27T04:25:08.416Z,10.77
2019-02-27T04:27:35.812Z,9.17
2019-02-27T04:30:04.010Z,9.67
2019-02-27T04:32:31.401Z,8.87
2019-02-27T04:34:58.827Z,9.30
2019-02-27T04:37:26.214Z,9.30
2019-02-27T04:39:53.640Z,9.30
2019-02-27T04:42:22.932Z,9.10
2019-02-27T04:44:50.211Z,10.23
2019-02-27T04:47:17.610Z,12.27
2019-02-27T04:49:45.040Z,8.97
2019-02-27T04:52:12.436Z,7.67
2019-02-27T04:54:41.557Z,8.50
2019-02-27T04:57:08.901Z,9.00
2019-02-27T04:59:36.324Z,9.10
2019-02-27T05:02:04.295Z,10.07
2019-02-27T05:04:34.906Z,10.07
2019-02-27T05:07:00.783Z,10.10
2019-02-27T05:09:28.174Z,10.20
2019-02-27T05:11:55.607Z,9.47
2019-02-27T05:14:24.899Z,9.43
2019-02-27T05:16:52.113Z,8.40
2019-02-27T05:19:19.542Z,9.57
2019-02-27T05:21:46.929Z,9.30
2019-02-27T05:24:14.326Z,9.17
2019-02-27T05:26:41.747Z,8.87
2019-02-27T05:29:09.206Z,9.80
2019-02-27T05:31:36.802Z,9.30
2019-02-27T05:34:04.189Z,9.23
2019-02-27T05:36:32.385Z,10.93
2019-02-27T05:38:59.928Z,9.07
2019-02-27T05:41:27.347Z,9.27
2019-02-27T05:43:54.738Z,9.37
2019-02-27T05:46:22.175Z,9.20
2019-02-27T05:48:50.947Z,9.53
2019-02-27T05:51:18.633Z,9.77
2019-02-27T05:53:46.034Z,8.37
2019-02-27T05:56:16.294Z,9.17
2019-02-27T05:58:42.613Z,9.00
2019-02-27T06:01:10.034Z,8.07
2019-02-27T06:03:37.528Z,6.90
2019-02-27T06:06:06.700Z,8.53
2019-02-27T06:08:36.785Z,7.70
2019-02-27T06:11:03.081Z,7.50
2019-02-27T06:13:30.471Z,8.00
2019-02-27T06:16:02.675Z,8.17
2019-02-27T06:18:26.931Z,9.00
2019-02-27T06:20:54.431Z,7.83
2019-02-27T06:23:21.850Z,7.57
2019-02-27T06:25:49.312Z,9.23
2019-02-27T06:28:18.747Z,9.50
2019-02-27T06:30:45.775Z,10.37
2019-02-27T06:33:13.279Z,12.33
2019-02-27T06:35:40.678Z,11.80
2019-02-27T06:38:08.096Z,11.27
2019-02-27T06:40:35.501Z,12.30
2019-02-27T06:43:02.932Z,11.50
2019-02-27T06:45:30.326Z,11.87
2019-02-27T06:47:57.749Z,13.17
2019-02-27T06:50:26.059Z,12.47
2019-02-27T06:52:53.585Z,11.40
2019-02-27T06:55:20.998Z,11.38
2019-02-27T06:57:48.418Z,11.90
2019-02-27T07:00:19.474Z,34.55
2019-02-27T07:02:46.902Z,21.97
2019-02-27T07:05:14.364Z,21.47
2019-02-27T07:07:41.781Z,11.17
2019-02-27T07:10:10.663Z,8.17
2019-02-27T07:12:38.090Z,7.90
2019-02-27T07:15:07.019Z,7.37
2019-02-27T07:17:34.642Z,8.60
2019-02-27T07:20:02.047Z,7.93
2019-02-27T07:22:29.467Z,10.37
2019-02-27T07:24:56.859Z,8.50
2019-02-27T07:27:24.279Z,9.90
2019-02-27T07:29:51.677Z,9.13
2019-02-27T07:32:19.119Z,9.60
2019-02-27T07:34:46.735Z,8.83
2019-02-27T07:37:15.574Z,10.33
2019-02-27T07:39:42.966Z,8.83
2019-02-27T07:42:10.452Z,8.90
2019-02-27T07:44:37.872Z,9.10
2019-02-27T07:47:05.359Z,9.00
2019-02-27T07:49:32.779Z,9.13
2019-02-27T07:52:00.171Z,8.50
2019-02-27T07:54:29.144Z,8.77
2019-02-27T07:56:56.647Z,8.77
2019-02-27T07:59:24.118Z,11.53
2019-02-27T08:01:51.526Z,9.70
2019-02-27T08:04:20.888Z,10.00
2019-02-27T08:06:47.985Z,10.90
2019-02-27T08:09:15.415Z,10.00
2019-02-27T08:11:47.145Z,9.07
2019-02-27T08:14:13.026Z,9.57
2019-02-27T08:16:40.439Z,10.20
2019-02-27T08:19:08.920Z,9.17
2019-02-27T08:21:36.906Z,9.90
2019-02-27T08:24:07.423Z,10.43
2019-02-27T08:26:36.379Z,10.13
2019-02-27T08:29:02.557Z,22.90
2019-02-27T08:31:31.989Z,11.17
2019-02-27T08:33:59.031Z,9.83
2019-02-27T08:36:26.432Z,10.77
2019-02-27T08:38:53.843Z,9.37
2019-02-27T08:41:21.233Z,8.40
2019-02-27T08:43:48.653Z,9.10
2019-02-27T08:46:16.046Z,10.60
2019-02-27T08:48:43.472Z,10.90
2019-02-27T08:51:10.903Z,10.97
2019-02-27T08:53:38.416Z,11.47
2019-02-27T08:56:05.855Z,10.80
2019-02-27T08:58:33.275Z,10.97
2019-02-27T09:01:00.944Z,11.27
2019-02-27T09:03:28.367Z,11.17
2019-02-27T09:05:55.767Z,10.97
2019-02-27T09:08:23.167Z,11.87
2019-02-27T09:10:50.611Z,11.17
2019-02-27T09:13:18.012Z,11.20
2019-02-27T09:15:45.535Z,10.13
2019-02-27T09:18:13.062Z,10.70
2019-02-27T09:20:40.498Z,8.67
2019-02-27T09:23:07.891Z,9.93
2019-02-27T09:25:35.312Z,11.13
2019-02-27T09:28:03.552Z,9.13
2019-02-27T09:30:31.136Z,10.10
2019-02-27T09:32:58.539Z,9.90
2019-02-27T09:35:26.036Z,10.00
2019-02-27T09:37:53.423Z,10.80
2019-02-27T09:40:29.418Z,10.13
2019-02-27T09:42:56.435Z,9.90
2019-02-27T09:45:27.338Z,8.57
2019-02-27T09:47:59.496Z,10.73
2019-02-27T09:50:33.690Z,10.20
2019-02-27T09:53:03.635Z,10.27
2019-02-27T09:55:30.242Z,10.13
2019-02-27T09:57:57.643Z,10.80
2019-02-27T10:00:29.339Z,10.03
2019-02-27T10:02:58.207Z,10.17
2019-02-27T10:05:25.757Z,10.00
2019-02-27T10:07:53.166Z,10.77
2019-02-27T10:10:20.597Z,10.43
2019-02-27T10:12:47.991Z,10.53
2019-02-27T10:15:15.481Z,10.53
2019-02-27T10:17:43.668Z,12.43
2019-02-27T10:20:11.845Z,36.90
2019-02-27T10:22:39.241Z,12.80
2019-02-27T10:25:08.605Z,10.70
2019-02-27T10:27:35.815Z,12.03
2019-02-27T10:30:11.289Z,11.00
2019-02-27T10:32:36.427Z,9.57
2019-02-27T10:35:02.542Z,9.80
2019-02-27T10:37:29.967Z,9.73
2019-02-27T10:39:57.363Z,10.40
2019-02-27T10:42:24.762Z,10.83
2019-02-27T10:44:52.199Z,10.73
2019-02-27T10:47:19.605Z,11.03
2019-02-27T10:49:47.033Z,11.33
2019-02-27T10:52:14.427Z,9.73
2019-02-27T10:54:41.830Z,9.97
2019-02-27T10:57:09.254Z,10.63
2019-02-27T10:59:36.660Z,10.93
2019-02-27T11:02:04.151Z,10.70
2019-02-27T11:04:31.551Z,10.80
2019-02-27T11:06:58.970Z,10.63
2019-02-27T11:09:26.844Z,10.77
2019-02-27T11:11:54.598Z,11.40
2019-02-27T11:14:22.255Z,11.07
2019-02-27T11:16:49.742Z,10.43
2019-02-27T11:19:17.269Z,11.57
2019-02-27T11:21:44.675Z,10.70
2019-02-27T11:24:14.462Z,10.50
2019-02-27T11:26:41.250Z,9.83
2019-02-27T11:29:08.638Z,12.47
2019-02-27T11:31:36.233Z,10.47
2019-02-27T11:34:05.084Z,11.60
2019-02-27T11:36:34.836Z,11.13
2019-02-27T11:39:01.852Z,10.57
2019-02-27T11:41:29.337Z,11.23
2019-02-27T11:43:56.793Z,10.37
2019-02-27T11:46:24.221Z,11.83
2019-02-27T11:48:51.628Z,10.60
2019-02-27T11:51:20.191Z,11.67
2019-02-27T11:53:48.230Z,9.60
2019-02-27T11:56:15.647Z,9.50
2019-02-27T11:58:43.117Z,11.30
2019-02-27T12:01:12.101Z,11.70
2019-02-27T12:03:39.647Z,10.37
2019-02-27T12:06:07.776Z,11.47
2019-02-27T12:08:35.791Z,12.33
2019-02-27T12:11:03.257Z,10.83
2019-02-27T12:13:32.312Z,11.60
2019-02-27T12:15:59.880Z,12.03
2019-02-27T12:18:27.269Z,10.60
2019-02-27T12:20:54.690Z,11.37
2019-02-27T12:23:22.099Z,37.17
2019-02-27T12:25:49.485Z,9.97
2019-02-27T12:28:18.274Z,10.90
2019-02-27T12:30:45.844Z,9.20
2019-02-27T12:33:13.259Z,9.00
2019-02-27T12:35:44.164Z,11.30
2019-02-27T12:38:11.399Z,9.70
2019-02-27T12:40:38.763Z,10.33
2019-02-27T12:43:06.183Z,10.27
2019-02-27T12:45:33.606Z,9.90
2019-02-27T12:48:01.125Z,8.90
2019-02-27T12:50:31.192Z,10.43
2019-02-27T12:52:58.083Z,10.43
2019-02-27T12:55:25.750Z,11.83
2019-02-27T12:57:53.242Z,11.20
2019-02-27T13:00:22.349Z,10.70
2019-02-27T13:02:49.843Z,8.87
2019-02-27T13:05:18.111Z,10.17
2019-02-27T13:07:45.578Z,10.37
2019-02-27T13:10:14.456Z,11.40
2019-02-27T13:12:41.875Z,9.93
2019-02-27T13:15:11.036Z,9.43
2019-02-27T13:17:38.463Z,10.70
2019-02-27T13:20:09.153Z,8.47
2019-02-27T13:22:36.488Z,7.83
2019-02-27T13:25:05.019Z,9.43
2019-02-27T13:27:32.438Z,9.27
2019-02-27T13:30:08.499Z,7.67
2019-02-27T13:32:28.899Z,7.60
2019-02-27T13:34:56.284Z,6.60
2019-02-27T13:37:23.716Z,7.03
2019-02-27T13:39:51.215Z,7.90
2019-02-27T13:42:19.205Z,6.40
2019-02-27T13:44:46.631Z,6.80
2019-02-27T13:47:14.027Z,6.77
2019-02-27T13:49:41.446Z,5.83
2019-02-27T13:52:12.357Z,7.10
2019-02-27T13:54:38.251Z,7.83
2019-02-27T13:57:05.610Z,7.40
2019-02-27T13:59:33.032Z,6.87
2019-02-27T14:02:00.679Z,6.00
2019-02-27T14:04:29.508Z,7.00
2019-02-27T14:06:56.933Z,4.53
2019-02-27T14:09:24.353Z,5.33
2019-02-27T14:11:51.816Z,5.30
2019-02-27T14:14:19.232Z,5.17
2019-02-27T14:16:46.631Z,4.40
2019-02-27T14:19:14.046Z,5.53
2019-02-27T14:21:41.472Z,5.63
2019-02-27T14:24:08.883Z,5.73
2019-02-27T14:26:38.345Z,5.20
2019-02-27T14:29:05.359Z,6.00
2019-02-27T14:31:32.752Z,5.97
2019-02-27T14:34:00.174Z,7.17
2019-02-27T14:36:27.576Z,5.83
2019-02-27T14:38:56.615Z,6.50
2019-02-27T14:41:24.231Z,6.57
2019-02-27T14:43:51.650Z,5.70
2019-02-27T14:46:19.047Z,5.97
2019-02-27T14:48:46.501Z,6.27
2019-02-27T14:51:13.895Z,4.87
2019-02-27T14:53:41.326Z,4.80
2019-02-27T14:56:10.033Z,4.07
2019-02-27T14:58:37.724Z,4.60
2019-02-27T15:01:05.987Z,4.23
2019-02-27T15:03:33.403Z,3.83
2019-02-27T15:06:00.793Z,5.47
2019-02-27T15:08:28.184Z,5.80
2019-02-27T15:10:55.608Z,7.27
2019-02-27T15:13:22.997Z,5.63
2019-02-27T15:15:50.467Z,7.17
2019-02-27T15:18:17.863Z,12.03
2019-02-27T15:20:45.286Z,7.80
2019-02-27T15:23:12.715Z,7.47
2019-02-27T15:25:43.142Z,6.80
2019-02-27T15:28:09.182Z,7.23
2019-02-27T15:30:36.603Z,6.27
2019-02-27T15:33:05.289Z,6.40
2019-02-27T15:35:32.895Z,6.07
2019-02-27T15:38:00.287Z,6.60
2019-02-27T15:40:29.498Z,8.20
2019-02-27T15:42:57.445Z,7.50
2019-02-27T15:45:25.542Z,6.30
2019-02-27T15:47:52.936Z,7.20
2019-02-27T15:50:22.957Z,7.60
2019-02-27T15:52:50.653Z,7.80
2019-02-27T15:55:18.195Z,5.97
2019-02-27T15:57:45.588Z,6.67
2019-02-27T16:00:17.764Z,7.30
2019-02-27T16:02:43.320Z,5.00
2019-02-27T16:05:11.811Z,5.93
2019-02-27T16:07:39.274Z,6.07
2019-02-27T16:10:08.291Z,7.90
2019-02-27T16:12:35.626Z,6.80
2019-02-27T16:15:03.387Z,6.93
2019-02-27T16:17:31.347Z,7.43
2019-02-27T16:19:59.303Z,8.80
2019-02-27T16:22:28.449Z,9.10
2019-02-27T16:24:55.815Z,10.30
2019-02-27T16:27:23.209Z,8.13
2019-02-27T16:29:50.673Z,7.40
2019-02-27T16:32:18.089Z,6.00
2019-02-27T16:34:45.490Z,7.10
2019-02-27T16:37:12.881Z,7.93
2019-02-27T16:39:41.730Z,14.70
2019-02-27T16:42:09.350Z,13.07
2019-02-27T16:44:36.794Z,8.23
2019-02-27T16:47:04.313Z,8.00
2019-02-27T16:49:31.740Z,8.33
2019-02-27T16:51:59.202Z,8.83
2019-02-27T16:54:27.488Z,10.23
2019-02-27T16:56:55.119Z,6.87
2019-02-27T16:59:22.518Z,5.87
2019-02-27T17:01:50.106Z,4.07
2019-02-27T17:04:17.498Z,4.60
2019-02-27T17:06:44.921Z,6.67
2019-02-27T17:09:13.310Z,24.07
2019-02-27T17:11:40.853Z,28.00
2019-02-27T17:14:08.266Z,12.93
2019-02-27T17:16:38.339Z,5.23
2019-02-27T17:19:06.134Z,5.30
2019-02-27T17:21:33.586Z,4.80
2019-02-27T17:24:01.011Z,3.70
2019-02-27T17:26:28.423Z,4.70
2019-02-27T17:28:55.808Z,4.63
2019-02-27T17:31:23.226Z,4.53
2019-02-27T17:33:50.681Z,4.23
2019-02-27T17:36:18.103Z,4.07
2019-02-27T17:38:49.820Z,5.00
2019-02-27T17:41:14.568Z,6.13
2019-02-27T17:43:41.956Z,4.63
2019-02-27T17:46:09.385Z,5.60
2019-02-27T17:48:36.771Z,5.47
2019-02-27T17:51:06.467Z,5.70
2019-02-27T17:53:33.298Z,7.50
2019-02-27T17:56:00.724Z,8.60
2019-02-27T17:58:31.915Z,8.00
2019-02-27T18:01:04.728Z,8.23
2019-02-27T18:03:32.129Z,12.13
2019-02-27T18:06:00.214Z,12.23
2019-02-27T18:08:27.752Z,11.80
2019-02-27T18:10:55.172Z,14.00
2019-02-27T18:13:22.571Z,14.43
2019-02-27T18:15:52.743Z,15.70
2019-02-27T18:18:19.042Z,16.53
2019-02-27T18:20:46.535Z,19.03
2019-02-27T18:23:13.930Z,17.63
2019-02-27T18:25:42.336Z,14.83
2019-02-27T18:28:09.927Z,14.40
2019-02-27T18:30:37.645Z,17.80
2019-02-27T18:33:05.009Z,20.00
2019-02-27T18:35:32.481Z,19.83
2019-02-27T18:37:59.902Z,13.27
2019-02-27T18:40:27.304Z,15.17
2019-02-27T18:42:56.469Z,16.03
2019-02-27T18:45:29.531Z,12.70
2019-02-27T18:47:58.674Z,12.23
2019-02-27T18:50:26.082Z,12.30
2019-02-27T18:52:53.511Z,13.20
2019-02-27T18:55:20.996Z,11.77
2019-02-27T18:57:48.509Z,17.10
2019-02-27T19:00:18.347Z,18.60
2019-02-27T19:02:45.942Z,17.17
2019-02-27T19:05:13.603Z,14.35
2019-02-27T19:07:41.102Z,11.70
2019-02-27T19:10:09.588Z,13.33
2019-02-27T19:12:37.063Z,14.03
2019-02-27T19:15:11.030Z,13.80
2019-02-27T19:17:35.155Z,12.23
2019-02-27T19:20:02.689Z,12.90
2019-02-27T19:22:30.175Z,13.53
2019-02-27T19:25:00.144Z,13.13
2019-02-27T19:27:26.832Z,11.87
2019-02-27T19:29:54.467Z,13.60
2019-02-27T19:32:23.169Z,15.17
2019-02-27T19:34:51.006Z,14.63
2019-02-27T19:37:18.435Z,14.57
2019-02-27T19:39:45.915Z,12.70
2019-02-27T19:42:13.885Z,14.43
2019-02-27T19:44:41.438Z,16.20
2019-02-27T19:47:09.015Z,14.57
2019-02-27T19:49:36.620Z,14.10
2019-02-27T19:52:04.639Z,13.13
2019-02-27T19:54:32.058Z,13.17
2019-02-27T19:56:59.463Z,13.07
2019-02-27T19:59:28.947Z,13.37
2019-02-27T20:01:55.931Z,14.20
2019-02-27T20:04:23.503Z,15.63
2019-02-27T20:06:51.408Z,14.03
2019-02-27T20:09:20.232Z,13.07
2019-02-27T20:11:47.995Z,12.77
2019-02-27T20:14:15.420Z,13.30
2019-02-27T20:16:42.822Z,14.10
2019-02-27T20:19:10.319Z,13.60
2019-02-27T20:21:37.856Z,13.60
2019-02-27T20:24:14.222Z,12.00
2019-02-27T20:26:44.064Z,13.17
2019-02-27T20:29:04.416Z,13.53
2019-02-27T20:31:32.600Z,11.63
2019-02-27T20:34:00.026Z,13.07
2019-02-27T20:36:30.268Z,14.10
2019-02-27T20:38:56.663Z,12.30
2019-02-27T20:41:24.070Z,15.33
2019-02-27T20:43:51.484Z,13.67
2019-02-27T20:46:19.084Z,15.17
2019-02-27T20:48:46.481Z,14.20
2019-02-27T20:51:13.950Z,15.53
2019-02-27T20:53:41.390Z,15.60
2019-02-27T20:56:08.786Z,15.20
2019-02-27T20:58:36.278Z,15.30
2019-02-27T21:01:03.814Z,13.97
2019-02-27T21:03:31.240Z,14.87
2019-02-27T21:05:58.638Z,15.53
2019-02-27T21:08:26.103Z,15.83
2019-02-27T21:10:55.313Z,15.37
2019-02-27T21:13:22.734Z,15.87
2019-02-27T21:15:50.183Z,15.23
2019-02-27T21:18:17.599Z,14.60
2019-02-27T21:20:46.085Z,14.23
2019-02-27T21:23:13.647Z,14.27
2019-02-27T21:25:41.167Z,14.47
2019-02-27T21:28:08.620Z,12.77
2019-02-27T21:30:37.936Z,13.17
2019-02-27T21:33:08.195Z,12.53
2019-02-27T21:35:34.556Z,12.80
2019-02-27T21:38:01.957Z,15.90
2019-02-27T21:40:29.382Z,15.83
2019-02-27T21:42:56.778Z,16.23
2019-02-27T21:45:24.309Z,16.47
2019-02-27T21:47:52.876Z,15.00
2019-02-27T21:50:21.050Z,15.77
2019-02-27T21:52:48.444Z,15.07
2019-02-27T21:55:15.954Z,14.33
2019-02-27T21:57:43.425Z,15.00
2019-02-27T22:00:13.992Z,17.50
2019-02-27T22:02:42.063Z,16.20
2019-02-27T22:05:10.658Z,15.07
2019-02-27T22:07:38.072Z,18.10
2019-02-27T22:10:07.261Z,17.33
2019-02-27T22:12:35.229Z,18.00
2019-02-27T22:15:05.508Z,17.20
2019-02-27T22:17:32.904Z,16.37
2019-02-27T22:20:00.326Z,15.17
2019-02-27T22:22:27.729Z,13.93
2019-02-27T22:24:55.619Z,14.10
2019-02-27T22:27:23.694Z,15.30
2019-02-27T22:29:51.120Z,30.00
2019-02-27T22:32:18.520Z,22.03
2019-02-27T22:34:46.045Z,18.60
2019-02-27T22:37:17.470Z,15.70
2019-02-27T22:39:42.547Z,16.60
2019-02-27T22:42:14.432Z,15.77
2019-02-27T22:44:39.159Z,15.10
2019-02-27T22:47:06.549Z,14.10
2019-02-27T22:49:33.974Z,13.63
2019-02-27T22:52:01.438Z,14.23
2019-02-27T22:54:28.864Z,17.30
2019-02-27T22:56:56.266Z,16.60
2019-02-27T22:59:23.696Z,13.57
2019-02-27T23:01:51.634Z,14.53
2019-02-27T23:04:19.141Z,13.10
2019-02-27T23:06:47.182Z,13.53
2019-02-27T23:09:16.725Z,12.80
2019-02-27T23:11:44.378Z,13.33
2019-02-27T23:14:11.855Z,11.83
2019-02-27T23:16:39.422Z,12.40
2019-02-27T23:19:06.888Z,12.63
2019-02-27T23:21:34.410Z,12.30
2019-02-27T23:24:01.789Z,11.00
2019-02-27T23:26:29.232Z,12.03
2019-02-27T23:28:57.530Z,12.33
2019-02-27T23:31:25.012Z,12.67
2019-02-27T23:33:52.485Z,11.30
2019-02-27T23:36:22.129Z,11.13
2019-02-27T23:38:48.960Z,11.80
2019-02-27T23:41:16.377Z,11.17
2019-02-27T23:43:43.841Z,11.40
2019-02-27T23:46:11.267Z,11.87
2019-02-27T23:48:38.662Z,11.50
2019-02-27T23:51:06.089Z,11.30
2019-02-27T23:53:33.494Z,11.53
2019-02-27T23:56:00.920Z,11.30
2019-02-27T23:58:29.499Z,12.00
